KINT/INT METAR and TAF weather

Enter ICAO airport designator
Station Type Date Time Source
KINT METAR 2020/09/18 19:54 UTC NOAA

KINT 181954Z 03010KT 10SM CLR 24/15 A2997 RMK AO2 SLP140 T02440150


Station Type Date Time Source
KINT Decoded METAR 2020/09/18 19:54 UTC NOAA

WINSTON SALEM SMITH REYNOLDS, NC, United States (KINT) 36-08N 80-14W 291M
Sep 18, 2020 - 03:54 PM EDT / 2020.09.18 1954 UTC
Wind: from the NNE (030 degrees) at 12 MPH (10 KT):0
Visibility: 10 mile(s):0
Sky conditions: clear
Temperature: 75.9 F (24.4 C)
Dew Point: 59.0 F (15.0 C)
Relative Humidity: 55%
Pressure (altimeter): 29.97 in. Hg (1014 hPa)
ob: KINT 181954Z 03010KT 10SM CLR 24/15 A2997 RMK AO2 SLP140 T02440150
cycle: 20

Station Type Date Time Source
KINT TAF 2020/09/18 18:22 UTC NOAA

TAF KINT 181720Z 1818/1918 02012G20KT P6SM SCT030
FM190100 02010G20KT P6SM SCT025 BKN050
FM190900 03011KT P6SM SCT250
FM191500 03011KT P6SM BKN040

Example: see airport list